Time;durP1;ratioP1;P1;durP2;ratioP2;P2;SDS_P1;SDS_P2;PMS_P1;PMS_P2;Temp;Humidity;BMP_temperature;BMP_pressure;BME280_temperature;BME280_humidity;BME280_pressure;Samples;Min_cycle;Max_cycle;Signal;HPM_P1;HPM_P2
2022/11/26 00:00:29;;;;;;;14.17;10.43;;;5.10;99.90;;;;;;5093798;28;20494;-81
2022/11/26 00:02:56;;;;;;;15.70;11.90;;;5.10;99.90;;;;;;5097390;28;20554;-81
2022/11/26 00:05:30;;;;;;;16.37;11.83;;;5.20;99.90;;;;;;5091990;28;20462;-80
2022/11/26 00:07:58;;;;;;;19.77;11.67;;;5.30;99.90;;;;;;5092938;28;21116;-80
2022/11/26 00:10:28;;;;;;;14.80;10.80;;;5.30;99.90;;;;;;5093038;28;20466;-80
2022/11/26 00:12:56;;;;;;;12.60;9.97;;;5.40;99.90;;;;;;5102316;28;20973;-81
2022/11/26 00:15:25;;;;;;;14.83;10.10;;;5.50;99.90;;;;;;5099746;28;20454;-80
2022/11/26 00:17:53;;;;;;;11.77;9.27;;;5.70;99.90;;;;;;5100757;28;20481;-80
2022/11/26 00:20:23;;;;;;;12.93;9.67;;;5.70;99.90;;;;;;5089577;28;21020;-81
2022/11/26 00:22:54;;;;;;;13.33;8.97;;;5.70;99.90;;;;;;5098467;28;20466;-80
2022/11/26 00:25:23;;;;;;;13.10;9.00;;;5.80;99.90;;;;;;5094001;28;20487;-80
2022/11/26 00:27:52;;;;;;;12.30;9.50;;;5.80;99.90;;;;;;5097221;28;20522;-80
2022/11/26 00:30:22;;;;;;;13.70;9.90;;;5.90;99.90;;;;;;5093967;28;20458;-81
2022/11/26 00:32:49;;;;;;;11.40;9.30;;;5.90;99.90;;;;;;5100509;28;21118;-81
2022/11/26 00:35:17;;;;;;;9.93;8.20;;;5.90;99.90;;;;;;5095028;28;20499;-81
2022/11/26 00:37:47;;;;;;;12.47;8.70;;;5.90;99.90;;;;;;5093537;28;20544;-81
2022/11/26 00:40:19;;;;;;;11.10;7.50;;;6.00;99.90;;;;;;5089410;28;20513;-81
2022/11/26 00:42:46;;;;;;;10.50;8.20;;;6.00;99.90;;;;;;5090369;28;20791;-81
2022/11/26 00:45:19;;;;;;;11.60;6.90;;;6.00;99.90;;;;;;5090460;28;20461;-81
2022/11/26 00:47:46;;;;;;;13.17;8.30;;;6.00;99.90;;;;;;5086223;28;20473;-80
2022/11/26 00:50:15;;;;;;;8.63;7.73;;;6.00;99.90;;;;;;5091947;28;20519;-80
2022/11/26 00:52:43;;;;;;;7.97;6.70;;;6.00;99.90;;;;;;5091698;28;20486;-80
2022/11/26 00:55:19;;;;;;;11.43;8.30;;;6.00;99.90;;;;;;5099014;28;20460;-80
2022/11/26 00:57:46;;;;;;;12.40;7.30;;;6.00;99.90;;;;;;5102914;28;21012;-80
2022/11/26 01:00:17;;;;;;;8.23;7.30;;;6.00;99.90;;;;;;5100307;28;20493;-80
2022/11/26 01:02:44;;;;;;;11.83;8.50;;;6.00;99.90;;;;;;5100412;28;20495;-80
2022/11/26 01:05:11;;;;;;;12.30;8.63;;;6.00;99.90;;;;;;5093516;28;20448;-81
2022/11/26 01:07:39;;;;;;;9.73;8.70;;;6.00;99.90;;;;;;5099147;28;20918;-81
2022/11/26 01:10:14;;;;;;;10.23;7.30;;;6.00;99.90;;;;;;5090637;28;20491;-81
2022/11/26 01:12:42;;;;;;;10.40;8.57;;;6.00;99.90;;;;;;5092491;28;20815;-81
2022/11/26 01:15:10;;;;;;;10.03;7.97;;;6.00;99.90;;;;;;5091032;28;20458;-81
2022/11/26 01:17:37;;;;;;;12.10;9.07;;;6.00;99.90;;;;;;5082841;28;20455;-81
2022/11/26 01:20:18;;;;;;;11.83;8.03;;;6.00;99.90;;;;;;5094557;28;20490;-81
2022/11/26 01:22:44;;;;;;;10.67;7.70;;;6.10;99.90;;;;;;5101528;28;20450;-81
2022/11/26 01:25:11;;;;;;;11.30;8.53;;;6.10;99.90;;;;;;5091632;28;20512;-81
2022/11/26 01:27:38;;;;;;;8.90;7.83;;;6.10;99.90;;;;;;5086911;28;20495;-81
2022/11/26 01:30:24;;;;;;;12.67;8.70;;;6.10;99.90;;;;;;5088526;28;20443;-81
2022/11/26 01:32:51;;;;;;;8.50;7.70;;;6.10;99.90;;;;;;5084326;28;20983;-82
2022/11/26 01:35:20;;;;;;;10.47;7.53;;;6.10;99.90;;;;;;5087920;28;20530;-81
2022/11/26 01:37:48;;;;;;;9.70;8.40;;;6.10;99.90;;;;;;5091583;28;20485;-81
2022/11/26 01:40:53;;;;;;;14.23;9.60;;;6.10;99.90;;;;;;5094075;28;21011;-81
2022/11/26 01:43:26;;;;;;;11.70;8.83;;;6.10;99.90;;;;;;5025435;28;20591;-81
2022/11/26 01:45:55;;;;;;;15.70;9.10;;;6.20;99.90;;;;;;5089652;28;20551;-81
2022/11/26 01:48:28;;;;;;;13.70;9.60;;;6.20;99.90;;;;;;5084546;28;20484;-81
2022/11/26 01:51:02;;;;;;;15.13;10.27;;;6.20;99.90;;;;;;5090305;28;20478;-81
2022/11/26 01:53:45;;;;;;;13.47;9.13;;;6.20;99.90;;;;;;5088708;28;20847;-81
2022/11/26 01:56:19;;;;;;;18.10;8.83;;;6.20;99.90;;;;;;5103498;28;20477;-82
2022/11/26 01:58:50;;;;;;;11.60;8.97;;;6.20;99.90;;;;;;5103306;28;20489;-80
2022/11/26 02:01:19;;;;;;;10.00;8.33;;;6.20;99.90;;;;;;5093412;28;20506;-81
2022/11/26 02:03:54;;;;;;;16.03;9.03;;;6.20;99.90;;;;;;5091988;28;20473;-80
2022/11/26 02:06:26;;;;;;;12.60;8.03;;;6.20;99.90;;;;;;5092916;28;20457;-81
2022/11/26 02:08:54;;;;;;;21.70;9.97;;;6.30;99.90;;;;;;5093613;28;20488;-81
2022/11/26 02:11:22;;;;;;;11.47;8.03;;;6.30;99.90;;;;;;5091187;28;20482;-80
2022/11/26 02:13:52;;;;;;;9.20;6.73;;;6.20;99.90;;;;;;5094302;28;20551;-80
2022/11/26 02:16:46;;;;;;;12.30;8.60;;;6.20;99.90;;;;;;5089440;28;20881;-81
2022/11/26 02:19:45;;;;;;;8.97;6.77;;;6.20;99.90;;;;;;5094752;28;20481;-80
2022/11/26 02:22:33;;;;;;;8.67;6.00;;;6.20;99.90;;;;;;5099067;28;20489;-80
2022/11/26 02:25:07;;;;;;;10.17;6.20;;;6.10;99.90;;;;;;5087267;28;20490;-80
2022/11/26 02:28:12;;;;;;;17.00;5.83;;;6.10;99.90;;;;;;5099873;28;20985;-80
2022/11/26 02:30:45;;;;;;;9.80;5.77;;;6.10;99.90;;;;;;5103897;28;20480;-80
2022/11/26 02:33:17;;;;;;;6.30;5.07;;;6.10;99.90;;;;;;5102774;28;20444;-81
2022/11/26 02:35:47;;;;;;;4.73;4.23;;;6.10;99.90;;;;;;5101481;28;20542;-80
2022/11/26 02:38:20;;;;;;;7.00;4.27;;;6.10;99.90;;;;;;5091602;28;20482;-81
2022/11/26 02:40:47;;;;;;;7.67;4.10;;;6.10;99.90;;;;;;5102737;28;20569;-82
2022/11/26 02:43:16;;;;;;;10.50;4.57;;;6.10;99.90;;;;;;5097371;28;20542;-81
2022/11/26 02:45:49;;;;;;;3.37;3.07;;;6.00;99.90;;;;;;5099639;28;20843;-81
2022/11/26 02:48:22;;;;;;;7.20;4.57;;;6.00;99.90;;;;;;5094000;28;20455;-81
2022/11/26 02:50:55;;;;;;;6.37;4.63;;;6.00;99.90;;;;;;5086428;28;20494;-81
2022/11/26 02:53:25;;;;;;;4.03;2.87;;;6.00;99.90;;;;;;5093730;28;20463;-81
2022/11/26 02:56:03;;;;;;;6.33;4.23;;;6.00;99.90;;;;;;5087662;28;20515;-81
2022/11/26 02:58:31;;;;;;;8.50;3.97;;;6.00;99.90;;;;;;5094176;28;20710;-81
2022/11/26 03:01:04;;;;;;;4.77;4.10;;;6.00;99.90;;;;;;5098909;28;20466;-81
2022/11/26 03:03:35;;;;;;;4.60;3.47;;;6.10;99.90;;;;;;5084215;28;20465;-81
2022/11/26 03:06:05;;;;;;;3.40;3.10;;;6.10;99.90;;;;;;5090688;28;20493;-81
2022/11/26 03:08:33;;;;;;;4.93;3.40;;;6.00;99.90;;;;;;5098527;28;20453;-81
2022/11/26 03:11:00;;;;;;;3.63;2.80;;;6.00;99.90;;;;;;5095409;28;20458;-81
2022/11/26 03:13:28;;;;;;;6.50;3.97;;;6.00;99.90;;;;;;5095227;28;20442;-81
2022/11/26 03:15:55;;;;;;;4.07;3.77;;;6.00;99.90;;;;;;5094174;28;20460;-81
2022/11/26 03:18:23;;;;;;;3.03;2.10;;;6.00;99.90;;;;;;5093278;28;21023;-81
2022/11/26 03:20:50;;;;;;;6.33;2.40;;;6.00;99.90;;;;;;5099716;28;20833;-81
2022/11/26 03:23:17;;;;;;;5.23;1.97;;;6.00;99.90;;;;;;5091659;28;20923;-80
2022/11/26 03:25:44;;;;;;;7.73;2.63;;;6.00;99.90;;;;;;5096450;28;20917;-81
2022/11/26 03:28:11;;;;;;;2.80;2.50;;;6.00;99.90;;;;;;5104350;28;20961;-81
2022/11/26 03:30:38;;;;;;;2.33;1.60;;;6.00;99.90;;;;;;5107696;28;20481;-80
2022/11/26 03:33:05;;;;;;;4.03;2.37;;;6.00;99.90;;;;;;5107028;28;20496;-80
2022/11/26 03:35:33;;;;;;;4.40;1.70;;;6.00;99.90;;;;;;5099492;28;20485;-80
2022/11/26 03:38:00;;;;;;;1.83;1.63;;;6.00;99.90;;;;;;5098681;28;20477;-81
2022/11/26 03:40:27;;;;;;;3.93;2.13;;;5.90;99.90;;;;;;5103999;27;20544;-81
2022/11/26 03:42:54;;;;;;;5.67;2.00;;;5.90;99.90;;;;;;5101879;28;20535;-81
2022/11/26 03:45:21;;;;;;;2.73;1.33;;;5.90;99.90;;;;;;5094848;28;20940;-81
2022/11/26 03:47:48;;;;;;;3.17;1.93;;;6.00;99.90;;;;;;5104225;28;20483;-81
2022/11/26 03:50:15;;;;;;;4.93;1.57;;;6.00;99.90;;;;;;5099293;28;20470;-81
2022/11/26 03:52:43;;;;;;;2.57;1.50;;;6.00;99.90;;;;;;5097086;28;20448;-81
2022/11/26 03:55:10;;;;;;;3.70;1.73;;;5.90;99.90;;;;;;5095268;28;20486;-80
2022/11/26 03:57:37;;;;;;;10.80;2.73;;;5.90;99.90;;;;;;5101796;28;20968;-80
2022/11/26 04:00:07;;;;;;;5.13;2.23;;;5.80;99.90;;;;;;5103540;28;20483;-80
2022/11/26 04:02:34;;;;;;;5.50;2.67;;;5.80;99.90;;;;;;5091351;28;20452;-80
2022/11/26 04:05:01;;;;;;;7.10;2.60;;;5.80;99.90;;;;;;5086418;28;20517;-80
2022/11/26 04:07:28;;;;;;;2.10;1.63;;;5.80;99.90;;;;;;5087794;28;20462;-80
2022/11/26 04:09:56;;;;;;;1.43;1.33;;;5.70;99.90;;;;;;5093980;28;20494;-80
2022/11/26 04:12:23;;;;;;;2.37;1.53;;;5.70;99.90;;;;;;5090286;28;20519;-80
2022/11/26 04:14:50;;;;;;;3.43;2.67;;;5.70;99.90;;;;;;5096427;28;20612;-80
2022/11/26 04:17:17;;;;;;;3.10;2.00;;;5.70;99.90;;;;;;5095833;28;20467;-80
2022/11/26 04:19:44;;;;;;;4.40;2.17;;;5.70;99.90;;;;;;5100565;28;20506;-80
2022/11/26 04:22:11;;;;;;;2.93;1.80;;;5.70;99.90;;;;;;5099627;28;20491;-80
2022/11/26 04:24:38;;;;;;;2.23;1.77;;;5.70;99.90;;;;;;5087400;28;20515;-80
2022/11/26 04:27:06;;;;;;;6.10;1.57;;;5.70;99.90;;;;;;5100290;28;20485;-80
2022/11/26 04:29:35;;;;;;;4.67;1.73;;;5.70;99.90;;;;;;5100476;28;21055;-80
2022/11/26 04:32:02;;;;;;;2.80;1.40;;;5.70;99.90;;;;;;5091964;28;20601;-80
2022/11/26 04:34:29;;;;;;;3.57;1.80;;;5.70;99.90;;;;;;5095884;28;20462;-80
2022/11/26 04:36:56;;;;;;;4.37;2.03;;;5.70;99.90;;;;;;5093290;28;20616;-80
2022/11/26 04:39:23;;;;;;;2.17;1.97;;;5.60;99.90;;;;;;5093399;28;20510;-80
2022/11/26 04:41:50;;;;;;;7.13;2.60;;;5.60;99.90;;;;;;5092989;27;20454;-80
2022/11/26 04:44:18;;;;;;;3.30;1.87;;;5.60;99.90;;;;;;5095186;28;20524;-80
2022/11/26 04:46:45;;;;;;;2.67;1.60;;;5.60;99.90;;;;;;5103907;28;20507;-80
2022/11/26 04:49:12;;;;;;;5.53;2.10;;;5.60;99.90;;;;;;5089043;28;20482;-80
2022/11/26 04:51:39;;;;;;;4.47;1.40;;;5.50;99.90;;;;;;5094478;28;20490;-80
2022/11/26 04:54:06;;;;;;;2.60;1.40;;;5.60;99.90;;;;;;5096934;28;20463;-80
2022/11/26 04:56:32;;;;;;;2.00;1.40;;;5.60;99.90;;;;;;5094596;28;20505;-80
2022/11/26 04:58:59;;;;;;;2.57;1.60;;;5.60;99.90;;;;;;5101065;28;20572;-80
2022/11/26 05:01:28;;;;;;;2.77;1.77;;;5.50;99.90;;;;;;5095140;28;20489;-80
2022/11/26 05:03:55;;;;;;;3.40;1.57;;;5.50;99.90;;;;;;5091885;28;20508;-80
2022/11/26 05:06:21;;;;;;;2.90;1.60;;;5.50;99.90;;;;;;5088321;28;20459;-80
2022/11/26 05:08:48;;;;;;;11.50;2.27;;;5.50;99.90;;;;;;5093126;28;20495;-80
2022/11/26 05:11:15;;;;;;;1.80;1.30;;;5.50;99.90;;;;;;5084221;28;20892;-80
2022/11/26 05:13:43;;;;;;;3.57;1.90;;;5.50;99.90;;;;;;5090309;28;20542;-80
2022/11/26 05:16:10;;;;;;;3.10;2.90;;;5.50;99.90;;;;;;5093056;28;20930;-80
2022/11/26 05:18:38;;;;;;;1.67;1.10;;;5.50;99.90;;;;;;5087980;28;20454;-80
2022/11/26 05:21:05;;;;;;;5.20;1.90;;;5.50;99.90;;;;;;5091108;28;20493;-80
2022/11/26 05:23:32;;;;;;;3.43;1.60;;;5.50;99.90;;;;;;5085961;28;20505;-80
2022/11/26 05:26:00;;;;;;;2.57;1.60;;;5.50;99.90;;;;;;5083818;28;20580;-80
2022/11/26 05:28:26;;;;;;;1.83;1.23;;;5.50;99.90;;;;;;5097159;28;20505;-80
2022/11/26 05:30:58;;;;;;;5.93;1.57;;;5.50;99.90;;;;;;5086839;28;20950;-80
2022/11/26 05:33:25;;;;;;;2.17;1.10;;;5.50;99.90;;;;;;5081822;28;20600;-80
2022/11/26 05:35:53;;;;;;;1.30;1.20;;;5.50;99.90;;;;;;5091280;28;20528;-80
2022/11/26 05:38:20;;;;;;;5.50;1.70;;;5.50;99.90;;;;;;5096046;28;20486;-80
2022/11/26 05:40:47;;;;;;;2.57;1.47;;;5.40;99.90;;;;;;5107780;27;20761;-79
2022/11/26 05:43:14;;;;;;;2.53;1.30;;;5.50;99.90;;;;;;5096892;27;20670;-79
2022/11/26 05:45:41;;;;;;;1.57;1.47;;;5.50;99.90;;;;;;5099166;28;21162;-80
2022/11/26 05:48:08;;;;;;;1.87;1.77;;;5.50;99.90;;;;;;5099580;28;20491;-79
2022/11/26 05:50:35;;;;;;;2.40;1.40;;;5.40;99.90;;;;;;5095270;28;20941;-79
2022/11/26 05:53:03;;;;;;;2.90;1.30;;;5.40;99.90;;;;;;5098923;28;20450;-79
2022/11/26 05:55:31;;;;;;;6.30;2.77;;;5.40;99.90;;;;;;5094960;28;20490;-79
2022/11/26 05:57:58;;;;;;;2.20;1.93;;;5.40;99.90;;;;;;5089524;28;20829;-79
2022/11/26 06:00:25;;;;;;;4.80;4.40;;;5.40;99.90;;;;;;5089596;28;21002;-80
2022/11/26 06:02:52;;;;;;;2.40;1.50;;;5.40;99.90;;;;;;5085928;28;20455;-80
2022/11/26 06:05:19;;;;;;;2.43;1.70;;;5.30;99.90;;;;;;5094440;28;20498;-80
2022/11/26 06:07:46;;;;;;;2.80;1.77;;;5.40;99.90;;;;;;5104000;28;20450;-80
2022/11/26 06:10:14;;;;;;;4.67;1.50;;;5.30;99.90;;;;;;5089162;28;20468;-80
2022/11/26 06:12:41;;;;;;;6.67;1.97;;;5.30;99.90;;;;;;5085961;28;20833;-80
2022/11/26 06:15:09;;;;;;;1.40;1.13;;;5.30;99.90;;;;;;5086278;28;20602;-80
2022/11/26 06:17:36;;;;;;;5.43;2.37;;;5.30;99.90;;;;;;5085732;28;20515;-80
2022/11/26 06:20:04;;;;;;;2.90;1.50;;;5.30;99.90;;;;;;5084558;28;20992;-79
2022/11/26 06:22:35;;;;;;;5.50;2.57;;;5.30;99.90;;;;;;5084657;28;20494;-79
2022/11/26 06:25:02;;;;;;;7.93;5.80;;;5.30;99.90;;;;;;5084976;28;20618;-79
2022/11/26 06:27:33;;;;;;;8.23;6.10;;;5.30;99.90;;;;;;5078311;28;20514;-79
2022/11/26 06:30:00;;;;;;;15.37;11.37;;;5.30;99.90;;;;;;5084521;28;20906;-79
2022/11/26 06:32:29;;;;;;;10.10;2.90;;;5.30;99.90;;;;;;5088457;28;20731;-80
2022/11/26 06:34:56;;;;;;;7.37;4.33;;;5.30;99.90;;;;;;5084372;28;20462;-80
2022/11/26 06:37:23;;;;;;;6.67;3.70;;;5.30;99.90;;;;;;5081699;28;20523;-80
2022/11/26 06:39:50;;;;;;;30.80;16.63;;;5.30;99.90;;;;;;5083525;28;20522;-80
2022/11/26 06:42:18;;;;;;;2.67;2.47;;;5.40;99.90;;;;;;5080798;28;20537;-80
2022/11/26 06:44:46;;;;;;;21.10;13.50;;;5.40;99.90;;;;;;5087820;28;20498;-80
2022/11/26 06:47:13;;;;;;;12.67;7.77;;;5.40;99.90;;;;;;5095667;28;20511;-80
2022/11/26 06:49:41;;;;;;;23.53;17.00;;;5.40;99.90;;;;;;5090630;27;20805;-80
2022/11/26 06:52:08;;;;;;;26.07;18.10;;;5.40;99.90;;;;;;5097925;28;20530;-80
2022/11/26 06:54:35;;;;;;;13.87;10.63;;;5.40;99.90;;;;;;5095649;28;21091;-79
2022/11/26 06:57:02;;;;;;;7.33;6.63;;;5.40;99.90;;;;;;5094798;27;20487;-80
2022/11/26 06:59:29;;;;;;;4.90;2.77;;;5.40;99.90;;;;;;5091122;28;20824;-80
2022/11/26 07:01:57;;;;;;;1.43;1.10;;;5.40;99.90;;;;;;5094229;28;20794;-80
2022/11/26 07:04:24;;;;;;;2.30;1.40;;;5.50;99.90;;;;;;5084995;28;20981;-80
2022/11/26 07:06:51;;;;;;;4.40;4.03;;;5.50;99.90;;;;;;5094708;28;20545;-80
2022/11/26 07:09:19;;;;;;;2.23;1.63;;;5.50;99.90;;;;;;5100050;28;20462;-80
2022/11/26 07:11:46;;;;;;;10.43;9.20;;;5.50;99.90;;;;;;5092680;28;20486;-80
2022/11/26 07:14:12;;;;;;;2.67;2.47;;;5.50;99.90;;;;;;5089634;28;20523;-81
2022/11/26 07:16:39;;;;;;;3.03;2.23;;;5.50;99.90;;;;;;5086266;28;20472;-80
2022/11/26 07:19:12;;;;;;;3.27;2.10;;;5.60;99.90;;;;;;5089273;28;20523;-80
2022/11/26 07:21:39;;;;;;;2.97;1.53;;;5.60;99.90;;;;;;5100792;28;20487;-80
2022/11/26 07:24:06;;;;;;;2.53;2.27;;;5.60;99.90;;;;;;5092935;28;20494;-80
2022/11/26 07:26:33;;;;;;;5.00;3.93;;;5.60;99.90;;;;;;5091511;28;20509;-80
2022/11/26 07:29:00;;;;;;;6.27;1.93;;;5.60;99.90;;;;;;5090205;28;20584;-80
2022/11/26 07:31:27;;;;;;;1.73;1.40;;;5.70;99.90;;;;;;5089104;28;20981;-80
2022/11/26 07:33:54;;;;;;;4.60;1.90;;;5.80;99.90;;;;;;5097462;28;20520;-80
2022/11/26 07:36:24;;;;;;;3.03;1.83;;;5.80;99.90;;;;;;5089875;28;21036;-80
2022/11/26 07:38:53;;;;;;;5.13;1.13;;;5.70;99.90;;;;;;5092145;28;20842;-79
2022/11/26 07:41:21;;;;;;;2.00;1.43;;;5.80;99.90;;;;;;5097494;27;20522;-80
2022/11/26 07:43:48;;;;;;;2.50;1.43;;;5.80;99.90;;;;;;5096032;28;20459;-79
2022/11/26 07:46:18;;;;;;;2.30;2.00;;;5.80;99.90;;;;;;5096502;28;20470;-80
2022/11/26 07:48:45;;;;;;;5.77;2.63;;;5.80;99.90;;;;;;5083474;28;21026;-80
2022/11/26 07:51:17;;;;;;;2.83;2.63;;;5.90;99.90;;;;;;5087023;28;20485;-80
2022/11/26 07:53:46;;;;;;;2.53;2.27;;;5.80;99.90;;;;;;5087722;28;20932;-80
2022/11/26 07:56:13;;;;;;;3.80;1.93;;;5.80;99.90;;;;;;5086039;27;20466;-80
2022/11/26 07:58:40;;;;;;;1.50;1.33;;;5.90;99.90;;;;;;5083844;28;20525;-80
2022/11/26 08:01:08;;;;;;;4.20;2.13;;;5.90;99.90;;;;;;5087200;28;20522;-80
2022/11/26 08:03:39;;;;;;;2.40;2.20;;;5.90;99.90;;;;;;5083087;28;20493;-80
2022/11/26 08:06:08;;;;;;;7.43;2.73;;;6.00;99.90;;;;;;5087388;28;20565;-81
2022/11/26 08:08:36;;;;;;;3.83;2.47;;;6.00;99.90;;;;;;5082728;28;20567;-81
2022/11/26 08:11:11;;;;;;;3.23;2.93;;;6.10;99.90;;;;;;5082763;28;20467;-81
2022/11/26 08:13:38;;;;;;;4.73;2.40;;;6.20;99.90;;;;;;5079149;28;22423;-81
2022/11/26 08:16:06;;;;;;;5.33;2.53;;;6.20;99.90;;;;;;5085218;28;20862;-81
2022/11/26 08:18:33;;;;;;;3.00;2.80;;;6.20;99.90;;;;;;5084264;28;20543;-80
2022/11/26 08:20:59;;;;;;;4.13;2.67;;;6.20;99.90;;;;;;5090011;27;20524;-80
2022/11/26 08:23:29;;;;;;;5.60;1.90;;;6.20;99.90;;;;;;5087680;28;20482;-81
2022/11/26 08:25:56;;;;;;;8.80;2.23;;;6.30;99.90;;;;;;5092173;28;20562;-81
2022/11/26 08:28:25;;;;;;;2.77;2.17;;;6.30;99.90;;;;;;5083511;28;20494;-81
2022/11/26 08:31:01;;;;;;;5.73;2.10;;;6.30;99.90;;;;;;5089843;28;20471;-81
2022/11/26 08:33:28;;;;;;;6.93;1.70;;;6.30;99.90;;;;;;5084351;28;20454;-81
2022/11/26 08:35:55;;;;;;;3.30;3.00;;;6.20;99.90;;;;;;5086035;28;20749;-81
2022/11/26 08:38:22;;;;;;;3.90;2.37;;;6.20;99.90;;;;;;5083892;28;20498;-81
2022/11/26 08:40:49;;;;;;;4.87;2.33;;;6.20;99.90;;;;;;5082634;28;20554;-81
2022/11/26 08:43:16;;;;;;;2.87;2.30;;;6.20;99.90;;;;;;5088825;28;20569;-81
2022/11/26 08:45:51;;;;;;;4.57;3.37;;;6.30;99.90;;;;;;5083443;28;20495;-81
2022/11/26 08:48:18;;;;;;;3.40;2.70;;;6.30;99.90;;;;;;5089333;28;20880;-80
2022/11/26 08:50:44;;;;;;;6.03;3.63;;;6.40;99.90;;;;;;5087123;28;20531;-80
2022/11/26 08:53:11;;;;;;;2.80;2.10;;;6.40;99.90;;;;;;5086797;28;20455;-81
2022/11/26 08:55:38;;;;;;;5.37;1.97;;;6.40;99.90;;;;;;5090911;28;21061;-81
2022/11/26 08:58:05;;;;;;;5.73;2.50;;;6.50;99.90;;;;;;5084711;28;20586;-80
2022/11/26 09:00:32;;;;;;;3.30;2.97;;;6.50;99.90;;;;;;5082285;28;20589;-80
2022/11/26 09:03:01;;;;;;;4.73;3.30;;;6.60;99.90;;;;;;5086458;28;20497;-80
2022/11/26 09:05:28;;;;;;;4.83;3.30;;;6.70;99.90;;;;;;5086513;28;20911;-82
2022/11/26 09:07:55;;;;;;;3.73;2.67;;;6.70;99.90;;;;;;5083269;28;20479;-82
2022/11/26 09:10:22;;;;;;;4.20;2.67;;;6.70;99.90;;;;;;5082858;28;20457;-81
2022/11/26 09:12:48;;;;;;;5.00;3.37;;;6.70;99.90;;;;;;5084212;28;20849;-81
2022/11/26 09:15:16;;;;;;;9.60;3.20;;;6.70;99.90;;;;;;5085721;28;20486;-81
2022/11/26 09:17:43;;;;;;;4.77;2.90;;;6.80;99.90;;;;;;5084443;28;20544;-81
2022/11/26 09:20:14;;;;;;;8.30;4.13;;;6.80;99.90;;;;;;5083640;28;20623;-82
2022/11/26 09:22:41;;;;;;;6.50;3.70;;;6.80;99.90;;;;;;5089047;28;20466;-80
2022/11/26 09:25:09;;;;;;;7.33;4.40;;;6.80;99.90;;;;;;5092513;28;20490;-80
2022/11/26 09:27:36;;;;;;;5.87;3.50;;;6.90;99.90;;;;;;5090435;27;20546;-80
2022/11/26 09:30:04;;;;;;;8.20;4.17;;;7.00;99.90;;;;;;5099155;27;20911;-80
2022/11/26 09:32:33;;;;;;;4.80;4.00;;;7.00;99.90;;;;;;5082188;28;20472;-80
2022/11/26 09:35:00;;;;;;;4.30;3.80;;;7.00;99.90;;;;;;5088010;27;20460;-80
2022/11/26 09:37:28;;;;;;;6.80;4.00;;;7.00;99.90;;;;;;5095928;28;20492;-80
2022/11/26 09:39:55;;;;;;;5.20;4.70;;;7.00;99.90;;;;;;5093313;27;20463;-80
2022/11/26 09:42:33;;;;;;;4.37;3.07;;;7.00;99.90;;;;;;5089595;28;20930;-80
2022/11/26 09:45:11;;;;;;;7.47;4.57;;;6.90;99.90;;;;;;5091349;28;20528;-80
2022/11/26 09:47:41;;;;;;;4.70;4.00;;;6.90;99.90;;;;;;5089444;28;20558;-80
2022/11/26 09:50:20;;;;;;;12.13;4.73;;;6.90;99.90;;;;;;5081642;27;20859;-83
2022/11/26 09:52:54;;;;;;;12.97;4.10;;;6.90;99.90;;;;;;5081083;28;20461;-82
2022/11/26 09:55:24;;;;;;;5.60;4.30;;;6.80;99.90;;;;;;5083052;28;20519;-81
2022/11/26 09:57:58;;;;;;;3.10;2.80;;;6.80;99.90;;;;;;5084467;28;21034;-81
2022/11/26 10:00:28;;;;;;;7.70;3.20;;;6.80;99.90;;;;;;5091416;28;20531;-81
2022/11/26 10:02:56;;;;;;;4.27;3.87;;;6.80;99.90;;;;;;5089207;28;20462;-82
2022/11/26 10:05:37;;;;;;;5.07;3.00;;;7.00;99.90;;;;;;5084415;28;20472;-82
2022/11/26 10:08:16;;;;;;;3.80;2.13;;;7.10;99.90;;;;;;5080474;28;20556;-82
2022/11/26 10:10:48;;;;;;;2.97;2.27;;;7.20;99.90;;;;;;5083880;28;20574;-82
2022/11/26 10:13:21;;;;;;;4.83;2.20;;;7.30;99.90;;;;;;5087077;28;20477;-82
2022/11/26 10:15:58;;;;;;;2.20;1.93;;;7.40;99.90;;;;;;5093388;28;20541;-81
2022/11/26 10:18:35;;;;;;;5.00;1.40;;;7.40;99.90;;;;;;5085631;28;20998;-81
2022/11/26 10:21:13;;;;;;;1.23;1.13;;;7.40;99.90;;;;;;5089507;28;20929;-81
2022/11/26 10:23:45;;;;;;;0.80;0.80;;;7.30;99.90;;;;;;5080813;28;20457;-80
2022/11/26 10:26:16;;;;;;;1.77;1.23;;;7.20;99.90;;;;;;5088480;28;21594;-80
2022/11/26 10:28:46;;;;;;;2.80;1.43;;;7.20;99.90;;;;;;5085122;27;20490;-80
2022/11/26 10:31:20;;;;;;;2.13;2.00;;;7.10;99.90;;;;;;5091471;28;20550;-80
2022/11/26 10:33:54;;;;;;;2.60;1.87;;;7.00;99.90;;;;;;5088516;27;20461;-80
2022/11/26 10:36:25;;;;;;;5.87;2.43;;;7.10;99.90;;;;;;5090294;28;20536;-80
2022/11/26 10:38:56;;;;;;;8.20;4.57;;;7.10;99.90;;;;;;5089457;28;20567;-80
2022/11/26 10:41:26;;;;;;;5.40;3.80;;;7.20;99.90;;;;;;5089276;28;20489;-80
2022/11/26 10:43:52;;;;;;;4.70;2.73;;;7.30;99.90;;;;;;5089555;27;20923;-81
2022/11/26 10:46:32;;;;;;;4.10;2.70;;;7.40;99.90;;;;;;5091809;28;21009;-80
2022/11/26 10:49:15;;;;;;;9.47;2.63;;;7.50;99.90;;;;;;5095655;27;20501;-80
2022/11/26 10:51:45;;;;;;;3.37;2.70;;;7.50;99.90;;;;;;5080789;27;21825;-82
2022/11/26 10:54:24;;;;;;;3.37;2.60;;;7.50;99.90;;;;;;5096136;28;20862;-82
2022/11/26 10:56:52;;;;;;;3.73;2.73;;;7.50;99.90;;;;;;5088605;28;20598;-81
2022/11/26 10:59:22;;;;;;;2.67;2.47;;;7.50;99.90;;;;;;5091052;28;20462;-81
2022/11/26 11:01:50;;;;;;;5.07;3.10;;;7.60;99.90;;;;;;5089913;28;20977;-82
2022/11/26 11:04:26;;;;;;;11.17;6.37;;;7.60;99.90;;;;;;5094254;28;20551;-81
2022/11/26 11:06:53;;;;;;;4.27;3.90;;;7.60;99.90;;;;;;5083275;28;20507;-82
2022/11/26 11:09:31;;;;;;;5.30;4.80;;;7.40;99.90;;;;;;5086462;28;20491;-82
2022/11/26 11:12:31;;;;;;;22.30;15.70;;;7.40;99.90;;;;;;5094882;28;20474;-83
2022/11/26 11:15:19;;;;;;;10.93;7.20;;;7.60;99.90;;;;;;5053132;28;20488;-83
2022/11/26 11:17:47;;;;;;;9.50;8.10;;;7.60;99.90;;;;;;5046175;28;20490;-82
2022/11/26 11:20:31;;;;;;;16.50;10.10;;;7.50;99.90;;;;;;5072011;28;20930;-82
2022/11/26 11:23:07;;;;;;;18.53;7.77;;;7.60;99.90;;;;;;5087021;28;21038;-82
2022/11/26 11:25:38;;;;;;;13.10;9.10;;;7.50;99.90;;;;;;5085018;28;21321;-82
2022/11/26 11:28:08;;;;;;;14.87;9.03;;;7.40;99.90;;;;;;5088580;28;20518;-81
2022/11/26 11:30:36;;;;;;;15.30;7.93;;;7.40;99.90;;;;;;5088946;28;20512;-81
2022/11/26 11:33:16;;;;;;;6.83;4.97;;;7.50;99.90;;;;;;5090152;28;20496;-81
2022/11/26 11:35:43;;;;;;;6.63;4.40;;;7.40;99.90;;;;;;5085839;28;20508;-82
2022/11/26 11:38:22;;;;;;;6.30;4.00;;;7.40;99.90;;;;;;5091272;28;20453;-81
2022/11/26 11:40:51;;;;;;;5.23;4.10;;;7.40;99.90;;;;;;5089642;28;20561;-82
2022/11/26 11:43:21;;;;;;;9.90;3.93;;;7.30;99.90;;;;;;5097139;28;20527;-81
2022/11/26 11:46:04;;;;;;;4.40;3.57;;;7.30;99.90;;;;;;5098288;28;20470;-81
2022/11/26 11:48:43;;;;;;;6.77;3.70;;;7.30;99.90;;;;;;5090802;28;20473;-81
2022/11/26 11:51:20;;;;;;;5.77;3.70;;;7.40;99.90;;;;;;5097964;28;20461;-81
2022/11/26 11:53:56;;;;;;;4.10;3.60;;;7.40;99.90;;;;;;5086014;28;20463;-80
2022/11/26 11:56:31;;;;;;;4.10;3.53;;;7.40;99.90;;;;;;5089789;28;20504;-80
2022/11/26 11:59:35;;;;;;;10.93;4.30;;;7.30;99.90;;;;;;5087550;28;20460;-80
2022/11/26 12:02:29;;;;;;;5.47;3.83;;;7.40;99.90;;;;;;5069874;28;20572;-81
2022/11/26 12:05:18;;;;;;;7.90;4.73;;;7.30;99.90;;;;;;5086906;28;20955;-80
2022/11/26 12:07:54;;;;;;;4.23;3.30;;;7.30;99.90;;;;;;5096517;28;21082;-81
2022/11/26 12:10:28;;;;;;;5.27;3.67;;;7.40;99.90;;;;;;5099474;27;20459;-80
2022/11/26 12:13:00;;;;;;;10.90;5.73;;;7.50;99.90;;;;;;5098039;28;20557;-80
2022/11/26 12:15:29;;;;;;;5.13;3.60;;;7.60;99.90;;;;;;5097959;27;20442;-81
2022/11/26 12:18:03;;;;;;;6.00;3.43;;;7.60;99.90;;;;;;5085626;27;20486;-80
2022/11/26 12:20:34;;;;;;;9.53;3.40;;;7.60;99.90;;;;;;5096764;28;20997;-79
2022/11/26 12:23:24;;;;;;;6.00;4.17;;;7.50;99.90;;;;;;5088551;28;20474;-79
2022/11/26 12:25:54;;;;;;;9.97;3.93;;;7.60;99.90;;;;;;5090057;28;20581;-79
2022/11/26 12:28:27;;;;;;;6.67;4.27;;;7.50;99.90;;;;;;5088699;28;20585;-79
2022/11/26 12:31:00;;;;;;;12.80;4.10;;;7.60;99.90;;;;;;5089508;28;20462;-79
2022/11/26 12:33:32;;;;;;;4.53;3.20;;;7.70;99.90;;;;;;5087964;28;20863;-79
2022/11/26 12:36:03;;;;;;;4.33;4.03;;;7.70;99.90;;;;;;5091426;28;20518;-79
2022/11/26 12:38:34;;;;;;;6.47;4.27;;;7.80;99.90;;;;;;5094283;28;20489;-80
2022/11/26 12:41:05;;;;;;;5.90;4.73;;;7.90;99.90;;;;;;5092734;28;20506;-79
2022/11/26 12:43:47;;;;;;;4.90;3.63;;;7.90;99.90;;;;;;5091936;28;20474;-79
2022/11/26 12:46:19;;;;;;;6.83;3.40;;;7.90;99.90;;;;;;5092453;28;20445;-79
2022/11/26 12:48:54;;;;;;;5.40;3.10;;;7.90;99.90;;;;;;5086738;28;20489;-79
2022/11/26 12:51:28;;;;;;;4.17;3.13;;;8.00;99.90;;;;;;5088619;28;20461;-79
2022/11/26 12:54:10;;;;;;;5.13;3.37;;;7.80;99.90;;;;;;5086519;28;20498;-79
2022/11/26 12:56:43;;;;;;;5.60;3.53;;;7.80;99.90;;;;;;5082032;28;20460;-79
2022/11/26 12:59:22;;;;;;;4.73;3.87;;;7.80;99.90;;;;;;5089292;28;21086;-79
2022/11/26 13:01:49;;;;;;;5.53;4.47;;;7.80;99.90;;;;;;5090804;28;20826;-79
2022/11/26 13:04:19;;;;;;;6.80;4.07;;;7.80;99.90;;;;;;5099774;28;21180;-79
2022/11/26 13:07:08;;;;;;;7.27;4.17;;;7.80;99.90;;;;;;5085867;28;20502;-79
2022/11/26 13:09:53;;;;;;;3.60;2.97;;;7.80;99.90;;;;;;5091691;28;20982;-79
2022/11/26 13:12:29;;;;;;;4.37;3.23;;;7.80;99.90;;;;;;5094026;28;20874;-79